Time;durP1;ratioP1;P1;durP2;ratioP2;P2;SDS_P1;SDS_P2;PMS_P1;PMS_P2;Temp;Humidity;BMP_temperature;BMP_pressure;BME280_temperature;BME280_humidity;BME280_pressure;Samples;Min_cycle;Max_cycle;Signal;HPM_P1;HPM_P2
2023/06/04 00:00:19;;;;;;;6.95;2.33;;;;;;;;;;5072515;28;20549;-73
2023/06/04 00:02:47;;;;;;;5.88;2.47;;;;;;;;;;5072145;28;20452;-73
2023/06/04 00:05:14;;;;;;;4.63;2.40;;;;;;;;;;5072374;28;20490;-73
2023/06/04 00:07:42;;;;;;;4.43;2.17;;;;;;;;;;5070802;28;20103;-73
2023/06/04 00:10:10;;;;;;;4.07;2.42;;;;;;;;;;5070893;28;20040;-73
2023/06/04 00:12:37;;;;;;;4.88;2.40;;;;;;;;;;5072167;28;20131;-72
2023/06/04 00:15:05;;;;;;;4.35;2.33;;;;;;;;;;5072030;28;20394;-72
2023/06/04 00:17:32;;;;;;;7.25;2.42;;;;;;;;;;5072298;28;20090;-73
2023/06/04 00:20:00;;;;;;;4.75;2.50;;;;;;;;;;5054736;28;20048;-73
2023/06/04 00:22:28;;;;;;;5.97;2.38;;;;;;;;;;5070724;28;20051;-73
2023/06/04 00:24:55;;;;;;;7.00;2.20;;;;;;;;;;5073235;28;20037;-74
2023/06/04 00:27:23;;;;;;;6.75;2.20;;;;;;;;;;5074732;28;20041;-73
2023/06/04 00:29:50;;;;;;;5.28;2.38;;;;;;;;;;5074259;28;20143;-74
2023/06/04 00:32:18;;;;;;;2.58;2.03;;;;;;;;;;5074227;28;20040;-74
2023/06/04 00:34:51;;;;;;;5.32;2.35;;;;;;;;;;5074467;28;20055;-73
2023/06/04 00:37:19;;;;;;;5.65;2.08;;;;;;;;;;5074383;28;20110;-73
2023/06/04 00:39:47;;;;;;;5.55;2.30;;;;;;;;;;5074710;28;20048;-73
2023/06/04 00:42:14;;;;;;;4.45;2.00;;;;;;;;;;5057739;28;20155;-73
2023/06/04 00:44:44;;;;;;;6.10;2.10;;;;;;;;;;5075686;28;20040;-73
2023/06/04 00:47:16;;;;;;;4.05;2.40;;;;;;;;;;5074028;28;20497;-73
2023/06/04 00:49:44;;;;;;;3.47;2.30;;;;;;;;;;5074052;28;20490;-72
2023/06/04 00:52:14;;;;;;;3.70;2.10;;;;;;;;;;5107915;28;20037;-73
2023/06/04 00:54:42;;;;;;;3.83;2.20;;;;;;;;;;5075057;28;20068;-73
2023/06/04 00:57:09;;;;;;;2.92;1.98;;;;;;;;;;5074045;28;20036;-73
2023/06/04 00:59:38;;;;;;;5.07;1.90;;;;;;;;;;5073999;28;20063;-73
2023/06/04 01:02:14;;;;;;;3.92;2.13;;;;;;;;;;5107803;28;20508;-73
2023/06/04 01:04:57;;;;;;;4.95;2.00;;;;;;;;;;5075126;28;20036;-73
2023/06/04 01:07:30;;;;;;;4.75;2.08;;;;;;;;;;5075264;28;20044;-73
2023/06/04 01:09:58;;;;;;;2.67;1.88;;;;;;;;;;5073947;28;20051;-73
2023/06/04 01:12:25;;;;;;;3.25;2.00;;;;;;;;;;5075280;28;20497;-73
2023/06/04 01:14:53;;;;;;;6.57;2.00;;;;;;;;;;5073695;28;20053;-73
2023/06/04 01:17:23;;;;;;;3.13;2.10;;;;;;;;;;5073523;28;20041;-73
2023/06/04 01:19:54;;;;;;;2.75;1.88;;;;;;;;;;5073678;28;20053;-72
2023/06/04 01:22:43;;;;;;;2.95;2.00;;;;;;;;;;5074668;28;20043;-73
2023/06/04 01:25:19;;;;;;;3.97;2.00;;;;;;;;;;5073475;28;20453;-72
2023/06/04 01:27:55;;;;;;;3.92;2.10;;;;;;;;;;5074720;28;20044;-73
2023/06/04 01:30:42;;;;;;;4.18;1.95;;;;;;;;;;5074625;28;20055;-73
2023/06/04 01:33:10;;;;;;;2.47;1.90;;;;;;;;;;5074441;28;20039;-73
2023/06/04 01:35:38;;;;;;;3.45;1.90;;;;;;;;;;5073356;28;20048;-73
2023/06/04 01:38:06;;;;;;;4.32;2.03;;;;;;;;;;5072531;28;20049;-72
2023/06/04 01:40:34;;;;;;;2.47;1.88;;;;;;;;;;5074320;28;20116;-72
2023/06/04 01:43:01;;;;;;;2.45;1.70;;;;;;;;;;5073180;28;20055;-73
2023/06/04 01:45:29;;;;;;;3.25;2.00;;;;;;;;;;5073304;28;20139;-72
2023/06/04 01:47:57;;;;;;;2.20;1.90;;;;;;;;;;5073029;28;20123;-72
2023/06/04 01:50:24;;;;;;;3.83;2.33;;;;;;;;;;5074510;28;20394;-72
2023/06/04 01:52:52;;;;;;;5.35;2.00;;;;;;;;;;5074154;28;20044;-71
2023/06/04 01:55:19;;;;;;;4.93;2.10;;;;;;;;;;5073718;28;20118;-71
2023/06/04 01:57:47;;;;;;;3.00;1.88;;;;;;;;;;5072811;28;20043;-71
2023/06/04 02:00:15;;;;;;;2.63;1.90;;;;;;;;;;5073012;28;20460;-71
2023/06/04 02:02:44;;;;;;;3.78;2.00;;;;;;;;;;5074079;28;20043;-71
2023/06/04 02:05:12;;;;;;;5.78;2.13;;;;;;;;;;5074217;28;20052;-72
2023/06/04 02:07:41;;;;;;;4.13;1.77;;;;;;;;;;5072746;28;20040;-71
2023/06/04 02:10:12;;;;;;;2.95;1.83;;;;;;;;;;5073793;28;20445;-71
2023/06/04 02:12:40;;;;;;;5.13;2.00;;;;;;;;;;5072598;28;20051;-71
2023/06/04 02:15:10;;;;;;;3.58;2.20;;;;;;;;;;5072551;28;20048;-71
2023/06/04 02:17:39;;;;;;;3.65;2.10;;;;;;;;;;5055833;28;20472;-71
2023/06/04 02:20:09;;;;;;;2.97;1.80;;;;;;;;;;5073670;28;20056;-72
2023/06/04 02:22:36;;;;;;;3.85;1.85;;;;;;;;;;5072452;28;20449;-72
2023/06/04 02:25:05;;;;;;;3.67;1.77;;;;;;;;;;5072429;28;20049;-70
2023/06/04 02:27:32;;;;;;;2.70;1.95;;;;;;;;;;5073421;28;20513;-71
2023/06/04 02:30:00;;;;;;;4.65;1.98;;;;;;;;;;5071954;28;20044;-71
2023/06/04 02:32:28;;;;;;;3.90;2.20;;;;;;;;;;5072192;28;20041;-71
2023/06/04 02:34:56;;;;;;;3.00;1.88;;;;;;;;;;5072162;28;20040;-71
2023/06/04 02:37:24;;;;;;;4.25;2.17;;;;;;;;;;5071591;28;20051;-72
2023/06/04 02:39:52;;;;;;;4.32;2.10;;;;;;;;;;5073306;28;20551;-71
2023/06/04 02:42:20;;;;;;;5.07;1.70;;;;;;;;;;5071961;28;20048;-72
2023/06/04 02:44:47;;;;;;;4.35;1.85;;;;;;;;;;5071933;28;20099;-72
2023/06/04 02:47:15;;;;;;;5.45;2.10;;;;;;;;;;5071739;28;20053;-72
2023/06/04 02:49:42;;;;;;;3.47;2.10;;;;;;;;;;5070881;28;20048;-72
2023/06/04 02:52:10;;;;;;;2.53;1.75;;;;;;;;;;5073019;28;20045;-71
2023/06/04 02:54:37;;;;;;;3.60;2.10;;;;;;;;;;5071555;28;20508;-72
2023/06/04 02:57:05;;;;;;;4.10;2.17;;;;;;;;;;5071705;28;20087;-72
2023/06/04 02:59:33;;;;;;;4.50;2.03;;;;;;;;;;5071613;28;20105;-72
2023/06/04 03:02:00;;;;;;;2.92;1.95;;;;;;;;;;5071512;28;20094;-72
2023/06/04 03:04:33;;;;;;;5.35;1.80;;;;;;;;;;5072941;28;20465;-71
2023/06/04 03:07:02;;;;;;;8.45;2.03;;;;;;;;;;5072870;28;20098;-72
2023/06/04 03:09:33;;;;;;;4.68;1.95;;;;;;;;;;5072639;28;20055;-73
2023/06/04 03:12:03;;;;;;;5.50;1.90;;;;;;;;;;5071650;28;20040;-72
2023/06/04 03:14:32;;;;;;;4.13;2.08;;;;;;;;;;5071465;28;20052;-72
2023/06/04 03:17:10;;;;;;;3.47;1.77;;;;;;;;;;5071554;28;20123;-72
2023/06/04 03:19:38;;;;;;;3.45;1.65;;;;;;;;;;5071514;28;20083;-73
2023/06/04 03:22:06;;;;;;;2.65;1.70;;;;;;;;;;5072611;28;20040;-72
2023/06/04 03:24:35;;;;;;;3.47;2.00;;;;;;;;;;5071455;28;20040;-73
2023/06/04 03:27:07;;;;;;;2.55;1.75;;;;;;;;;;5071344;28;20036;-72
2023/06/04 03:29:35;;;;;;;3.17;2.00;;;;;;;;;;5071020;28;20044;-73
2023/06/04 03:32:04;;;;;;;4.32;1.90;;;;;;;;;;5071261;28;20080;-72
2023/06/04 03:34:32;;;;;;;3.95;1.70;;;;;;;;;;5072427;28;20086;-73
2023/06/04 03:37:02;;;;;;;2.92;1.95;;;;;;;;;;5071173;28;20040;-72
2023/06/04 03:39:31;;;;;;;2.70;1.92;;;;;;;;;;5071160;28;20048;-73
2023/06/04 03:42:02;;;;;;;6.25;1.88;;;;;;;;;;5071012;28;20036;-72
2023/06/04 03:44:30;;;;;;;4.68;1.80;;;;;;;;;;5072432;28;20041;-71
2023/06/04 03:46:58;;;;;;;2.22;1.73;;;;;;;;;;5071311;28;20048;-71
2023/06/04 03:49:27;;;;;;;5.38;2.10;;;;;;;;;;5054907;28;20045;-71
2023/06/04 03:51:55;;;;;;;4.07;1.50;;;;;;;;;;5081478;28;20344;-71
2023/06/04 03:54:23;;;;;;;5.22;1.77;;;;;;;;;;5091248;28;20048;-71
2023/06/04 03:56:51;;;;;;;8.98;1.83;;;;;;;;;;5091395;28;20044;-72
2023/06/04 03:59:19;;;;;;;3.95;1.70;;;;;;;;;;5091233;28;20048;-72
2023/06/04 04:01:47;;;;;;;2.97;1.80;;;;;;;;;;5095452;28;20044;-72
2023/06/04 04:04:15;;;;;;;3.60;1.60;;;;;;;;;;5095556;28;20044;-71
2023/06/04 04:06:43;;;;;;;3.70;1.92;;;;;;;;;;5095289;28;20513;-72
2023/06/04 04:09:12;;;;;;;3.53;1.80;;;;;;;;;;5094986;28;20494;-72
2023/06/04 04:11:39;;;;;;;3.15;1.70;;;;;;;;;;5095294;28;20130;-72
2023/06/04 04:14:07;;;;;;;4.47;1.73;;;;;;;;;;5094995;28;20048;-72
2023/06/04 04:16:34;;;;;;;4.55;1.90;;;;;;;;;;5095303;28;20440;-71
2023/06/04 04:19:02;;;;;;;4.90;1.88;;;;;;;;;;5096255;28;20081;-71
2023/06/04 04:21:30;;;;;;;4.43;2.00;;;;;;;;;;5095016;28;20040;-72
2023/06/04 04:23:57;;;;;;;3.05;1.80;;;;;;;;;;5094809;28;20089;-71
2023/06/04 04:26:27;;;;;;;2.83;1.75;;;;;;;;;;5094723;28;20123;-72
2023/06/04 04:28:57;;;;;;;2.28;1.70;;;;;;;;;;5094928;28;20048;-72
2023/06/04 04:31:28;;;;;;;2.97;1.85;;;;;;;;;;5078596;28;20067;-72
2023/06/04 04:33:56;;;;;;;1.80;1.70;;;;;;;;;;5094703;28;20082;-72
2023/06/04 04:36:24;;;;;;;2.63;1.85;;;;;;;;;;5094846;28;20393;-73
2023/06/04 04:38:54;;;;;;;6.10;2.15;;;;;;;;;;5094649;28;20058;-72
2023/06/04 04:41:29;;;;;;;9.00;2.55;;;;;;;;;;5094682;28;20044;-73
2023/06/04 04:44:03;;;;;;;3.50;1.63;;;;;;;;;;5094499;28;20147;-72
2023/06/04 04:46:31;;;;;;;2.63;1.70;;;;;;;;;;5094592;28;20127;-72
2023/06/04 04:48:58;;;;;;;4.97;2.00;;;;;;;;;;5077578;28;20441;-72
2023/06/04 04:51:26;;;;;;;4.35;1.73;;;;;;;;;;5094320;28;20409;-72
2023/06/04 04:53:55;;;;;;;2.80;1.90;;;;;;;;;;5094440;28;20375;-72
2023/06/04 04:56:26;;;;;;;2.83;1.70;;;;;;;;;;5094442;28;20143;-72
2023/06/04 04:58:54;;;;;;;4.68;2.15;;;;;;;;;;5094155;28;20052;-72
2023/06/04 05:01:23;;;;;;;4.10;2.05;;;;;;;;;;5094078;28;20040;-72
2023/06/04 05:03:51;;;;;;;2.47;1.77;;;;;;;;;;5094068;28;20071;-71
2023/06/04 05:06:19;;;;;;;4.07;1.80;;;;;;;;;;5094123;28;20093;-72
2023/06/04 05:08:47;;;;;;;4.63;2.00;;;;;;;;;;5093892;28;20071;-72
2023/06/04 05:11:16;;;;;;;7.05;1.88;;;;;;;;;;5076367;28;20048;-72
2023/06/04 05:13:46;;;;;;;1.48;1.30;;;;;;;;;;5093871;28;20086;-72
2023/06/04 05:16:13;;;;;;;9.60;2.10;;;;;;;;;;5095223;28;20139;-72
2023/06/04 05:18:44;;;;;;;5.95;2.10;;;;;;;;;;5093759;28;20036;-72
2023/06/04 05:21:19;;;;;;;4.30;1.65;;;;;;;;;;5093813;28;20480;-72
2023/06/04 05:23:53;;;;;;;12.25;2.55;;;;;;;;;;5094827;28;20477;-72
2023/06/04 05:26:25;;;;;;;41.22;4.22;;;;;;;;;;5093686;28;20524;-73
2023/06/04 05:28:55;;;;;;;15.75;2.60;;;;;;;;;;5093541;28;20040;-72
2023/06/04 05:31:28;;;;;;;6.65;1.88;;;;;;;;;;5093330;28;20048;-72
2023/06/04 05:33:59;;;;;;;6.57;2.00;;;;;;;;;;5093468;28;20048;-72
2023/06/04 05:36:28;;;;;;;5.80;1.85;;;;;;;;;;5093205;28;20103;-72
2023/06/04 05:38:59;;;;;;;3.10;1.42;;;;;;;;;;5093390;28;20070;-72
2023/06/04 05:41:53;;;;;;;19.52;3.15;;;;;;;;;;5093178;28;20098;-70
2023/06/04 05:44:21;;;;;;;2.40;1.60;;;;;;;;;;5093336;28;20466;-72
2023/06/04 05:46:48;;;;;;;5.95;2.15;;;;;;;;;;5076948;28;20047;-72
2023/06/04 05:49:16;;;;;;;11.23;2.20;;;;;;;;;;5093104;28;20044;-72
2023/06/04 05:51:44;;;;;;;7.60;2.03;;;;;;;;;;5096231;28;20040;-74
2023/06/04 05:54:11;;;;;;;4.63;1.88;;;;;;;;;;5099743;28;20063;-74
2023/06/04 05:56:42;;;;;;;6.20;1.92;;;;;;;;;;5104439;28;20126;-75
2023/06/04 05:59:10;;;;;;;17.77;3.30;;;;;;;;;;5110084;28;20104;-74
2023/06/04 06:01:38;;;;;;;3.55;1.77;;;;;;;;;;5113948;28;20058;-75
2023/06/04 06:04:06;;;;;;;6.50;2.13;;;;;;;;;;5113189;28;20092;-74
2023/06/04 06:06:35;;;;;;;6.10;2.17;;;;;;;;;;5113441;28;20039;-72
2023/06/04 06:09:03;;;;;;;6.95;2.05;;;;;;;;;;5112998;28;20040;-72
2023/06/04 06:11:31;;;;;;;9.43;2.25;;;;;;;;;;5113201;28;20126;-73
2023/06/04 06:13:59;;;;;;;15.43;2.70;;;;;;;;;;5113310;28;20044;-75
2023/06/04 06:16:27;;;;;;;4.72;2.03;;;;;;;;;;5112977;28;20043;-74
2023/06/04 06:18:55;;;;;;;3.03;1.90;;;;;;;;;;5109913;28;20123;-73
2023/06/04 06:21:22;;;;;;;10.00;2.22;;;;;;;;;;5072461;28;20040;-77
2023/06/04 06:23:50;;;;;;;7.28;2.22;;;;;;;;;;5086410;28;20390;-74
2023/06/04 06:26:18;;;;;;;3.13;1.67;;;;;;;;;;5092412;28;20128;-75
2023/06/04 06:28:50;;;;;;;9.02;2.28;;;;;;;;;;5093624;28;20051;-74
2023/06/04 06:31:19;;;;;;;8.73;2.45;;;;;;;;;;5103586;28;20086;-73
2023/06/04 06:33:47;;;;;;;8.00;2.28;;;;;;;;;;5113505;28;20036;-73
2023/06/04 06:36:18;;;;;;;5.78;2.60;;;;;;;;;;5113420;28;20100;-72
2023/06/04 06:38:47;;;;;;;5.28;2.10;;;;;;;;;;5113559;28;20047;-73
2023/06/04 06:41:15;;;;;;;10.95;2.25;;;;;;;;;;5113332;28;20048;-74
2023/06/04 06:43:47;;;;;;;6.30;2.13;;;;;;;;;;5113650;28;20051;-74
2023/06/04 06:46:20;;;;;;;5.82;2.40;;;;;;;;;;5101341;28;20426;-74
2023/06/04 06:48:50;;;;;;;4.63;2.03;;;;;;;;;;5097807;28;20046;-73
2023/06/04 06:51:18;;;;;;;5.40;2.50;;;;;;;;;;5112724;28;20039;-73
2023/06/04 06:53:45;;;;;;;3.63;2.20;;;;;;;;;;5113046;28;20040;-73
2023/06/04 06:56:15;;;;;;;6.88;2.33;;;;;;;;;;5100793;28;20046;-74
2023/06/04 06:58:42;;;;;;;7.30;2.55;;;;;;;;;;5112923;28;20036;-73
2023/06/04 07:01:10;;;;;;;8.07;2.75;;;;;;;;;;5081282;28;20558;-73
2023/06/04 07:03:40;;;;;;;13.02;2.95;;;;;;;;;;5107549;28;20092;-74
2023/06/04 07:06:08;;;;;;;5.03;2.55;;;;;;;;;;5092470;28;20501;-73
2023/06/04 07:08:35;;;;;;;4.72;2.55;;;;;;;;;;5108139;28;20518;-72
2023/06/04 07:11:03;;;;;;;22.08;3.33;;;;;;;;;;5103188;28;20090;-71
2023/06/04 07:13:35;;;;;;;8.48;2.40;;;;;;;;;;5107918;28;20459;-73
2023/06/04 07:16:03;;;;;;;9.38;2.63;;;;;;;;;;5102091;28;20040;-72
2023/06/04 07:18:30;;;;;;;17.55;3.78;;;;;;;;;;5092989;28;20040;-74
2023/06/04 07:20:58;;;;;;;6.90;2.72;;;;;;;;;;5092921;28;20401;-71
2023/06/04 07:23:25;;;;;;;8.10;3.53;;;;;;;;;;5092802;28;20040;-75
2023/06/04 07:25:53;;;;;;;4.95;2.30;;;;;;;;;;5092533;28;20458;-69
2023/06/04 07:28:20;;;;;;;8.38;2.72;;;;;;;;;;5091230;28;20061;-71
2023/06/04 07:30:48;;;;;;;7.00;3.00;;;;;;;;;;5090810;28;20052;-68
2023/06/04 07:33:15;;;;;;;7.40;3.38;;;;;;;;;;5092476;28;20067;-72
2023/06/04 07:35:43;;;;;;;5.15;2.55;;;;;;;;;;5092072;28;20419;-72
2023/06/04 07:38:10;;;;;;;38.88;5.95;;;;;;;;;;5091411;28;20063;-72
2023/06/04 07:40:38;;;;;;;6.63;3.00;;;;;;;;;;5092621;28;20127;-72
2023/06/04 07:43:05;;;;;;;10.80;3.20;;;;;;;;;;5092239;28;20032;-72
2023/06/04 07:45:36;;;;;;;7.60;3.15;;;;;;;;;;5092693;28;20440;-70
2023/06/04 07:48:03;;;;;;;9.35;2.83;;;;;;;;;;5092352;28;20036;-71
2023/06/04 07:50:31;;;;;;;13.52;3.38;;;;;;;;;;5091745;28;20547;-71
2023/06/04 07:53:02;;;;;;;9.35;2.65;;;;;;;;;;5089721;28;20050;-72
2023/06/04 07:55:31;;;;;;;10.50;3.28;;;;;;;;;;5089740;28;20061;-72
2023/06/04 07:57:59;;;;;;;13.40;3.15;;;;;;;;;;5092543;28;20157;-71
2023/06/04 08:00:26;;;;;;;7.97;3.40;;;;;;;;;;5092516;28;20051;-71
2023/06/04 08:02:54;;;;;;;11.30;4.50;;;;;;;;;;5092459;28;20486;-71
2023/06/04 08:05:21;;;;;;;7.15;3.45;;;;;;;;;;5091328;28;20051;-71
2023/06/04 08:07:49;;;;;;;7.85;2.60;;;;;;;;;;5090779;28;20040;-73
2023/06/04 08:10:16;;;;;;;5.85;2.75;;;;;;;;;;5091094;28;20037;-71
2023/06/04 08:12:45;;;;;;;11.75;4.22;;;;;;;;;;5091402;28;20059;-72
2023/06/04 08:15:15;;;;;;;9.98;4.05;;;;;;;;;;5091862;28;20036;-71
2023/06/04 08:17:43;;;;;;;5.60;2.80;;;;;;;;;;5092107;28;20047;-71
2023/06/04 08:20:11;;;;;;;7.07;2.83;;;;;;;;;;5090733;28;20134;-72
2023/06/04 08:22:38;;;;;;;8.07;2.55;;;;;;;;;;5092180;28;20040;-71
2023/06/04 08:25:06;;;;;;;5.47;2.90;;;;;;;;;;5092413;28;20078;-71
2023/06/04 08:27:33;;;;;;;8.05;3.17;;;;;;;;;;5092240;28;20098;-72
2023/06/04 08:30:01;;;;;;;9.52;2.92;;;;;;;;;;5090852;28;20044;-72
2023/06/04 08:32:29;;;;;;;10.43;2.83;;;;;;;;;;5092144;28;20129;-72
2023/06/04 08:34:57;;;;;;;5.35;2.70;;;;;;;;;;5092052;28;20040;-71
2023/06/04 08:37:24;;;;;;;4.70;2.45;;;;;;;;;;5090789;28;20134;-71
2023/06/04 08:39:52;;;;;;;5.65;2.50;;;;;;;;;;5092276;28;20042;-72
2023/06/04 08:42:28;;;;;;;6.10;2.60;;;;;;;;;;5091941;28;20111;-71
2023/06/04 08:44:56;;;;;;;6.88;2.92;;;;;;;;;;5091897;28;20469;-71
2023/06/04 08:47:27;;;;;;;5.68;2.28;;;;;;;;;;5095416;28;20040;-72
2023/06/04 08:49:55;;;;;;;6.00;2.40;;;;;;;;;;5095640;28;20486;-71
2023/06/04 08:52:24;;;;;;;6.97;3.05;;;;;;;;;;5095446;28;20067;-71
2023/06/04 08:54:52;;;;;;;8.55;3.45;;;;;;;;;;5095560;28;20046;-70
2023/06/04 08:57:20;;;;;;;10.85;3.30;;;;;;;;;;5094294;28;20086;-71
2023/06/04 08:59:48;;;;;;;10.70;4.43;;;;;;;;;;5095377;28;20106;-71
2023/06/04 09:02:15;;;;;;;5.00;2.53;;;;;;;;;;5094229;28;20406;-71
2023/06/04 09:04:43;;;;;;;8.10;2.58;;;;;;;;;;5094132;28;20075;-71
2023/06/04 09:07:12;;;;;;;9.05;3.25;;;;;;;;;;5095407;28;20048;-71
2023/06/04 09:09:40;;;;;;;5.65;2.63;;;;;;;;;;5095329;28;20514;-71
2023/06/04 09:12:10;;;;;;;9.75;3.50;;;;;;;;;;5077702;28;20517;-71
2023/06/04 09:14:38;;;;;;;13.15;5.35;;;;;;;;;;5095194;28;20040;-70
2023/06/04 09:17:06;;;;;;;6.40;3.28;;;;;;;;;;5095500;28;20123;-71
2023/06/04 09:19:33;;;;;;;4.97;3.00;;;;;;;;;;5095135;28;20033;-71
2023/06/04 09:22:02;;;;;;;7.10;2.60;;;;;;;;;;5095075;28;20513;-71
2023/06/04 09:24:40;;;;;;;8.15;3.38;;;;;;;;;;5095241;28;20455;-71
2023/06/04 09:27:27;;;;;;;13.25;3.00;;;;;;;;;;5093900;28;20047;-70
2023/06/04 09:29:56;;;;;;;10.65;6.20;;;;;;;;;;5093317;28;20555;-71
2023/06/04 09:32:27;;;;;;;18.20;6.82;;;;;;;;;;5094811;28;20105;-71
2023/06/04 09:34:57;;;;;;;15.00;5.63;;;;;;;;;;5094783;28;20048;-71
2023/06/04 09:37:26;;;;;;;20.45;11.30;;;;;;;;;;5094786;28;20046;-71
2023/06/04 09:39:54;;;;;;;12.30;7.40;;;;;;;;;;5094651;28;20036;-71
2023/06/04 09:42:24;;;;;;;10.98;5.45;;;;;;;;;;5093390;28;20043;-71
2023/06/04 09:44:51;;;;;;;9.85;4.07;;;;;;;;;;5094621;28;20032;-70
2023/06/04 09:47:19;;;;;;;11.43;4.60;;;;;;;;;;5093313;28;20119;-71
2023/06/04 09:49:47;;;;;;;6.90;2.78;;;;;;;;;;5094381;28;20094;-71
2023/06/04 09:52:15;;;;;;;5.53;2.80;;;;;;;;;;5094392;28;20066;-71
2023/06/04 09:54:43;;;;;;;6.63;3.85;;;;;;;;;;5094529;28;20040;-71
2023/06/04 09:57:21;;;;;;;5.88;2.72;;;;;;;;;;5093869;28;20131;-71
2023/06/04 09:59:52;;;;;;;5.32;2.60;;;;;;;;;;5094211;28;20490;-71
2023/06/04 10:02:23;;;;;;;6.93;2.70;;;;;;;;;;5094193;28;20058;-71
2023/06/04 10:04:57;;;;;;;6.03;2.47;;;;;;;;;;5094234;28;20098;-71
2023/06/04 10:07:25;;;;;;;17.75;3.78;;;;;;;;;;5093116;28;20071;-72
2023/06/04 10:09:53;;;;;;;13.70;3.22;;;;;;;;;;5093589;28;20101;-70
2023/06/04 10:12:29;;;;;;;14.48;2.70;;;;;;;;;;5093259;28;20055;-70
2023/06/04 10:15:01;;;;;;;7.72;3.30;;;;;;;;;;5092351;28;20080;-71
2023/06/04 10:17:30;;;;;;;5.20;2.67;;;;;;;;;;5092973;28;20040;-74
2023/06/04 10:19:58;;;;;;;12.52;2.83;;;;;;;;;;5093087;28;20039;-74
2023/06/04 10:22:26;;;;;;;6.75;2.13;;;;;;;;;;5093854;28;20447;-73
2023/06/04 10:24:53;;;;;;;8.80;2.70;;;;;;;;;;5093557;28;20040;-71
2023/06/04 10:27:21;;;;;;;5.70;2.53;;;;;;;;;;5092796;28;20047;-72
2023/06/04 10:29:50;;;;;;;10.48;3.45;;;;;;;;;;5091768;28;20086;-71
2023/06/04 10:32:17;;;;;;;13.05;3.88;;;;;;;;;;5092757;28;20081;-72
2023/06/04 10:34:47;;;;;;;8.77;3.65;;;;;;;;;;5093125;28;20032;-72
2023/06/04 10:37:21;;;;;;;5.53;3.42;;;;;;;;;;5090211;28;20058;-73
2023/06/04 10:39:56;;;;;;;5.55;3.30;;;;;;;;;;5093947;28;20119;-72
2023/06/04 10:42:24;;;;;;;5.45;3.10;;;;;;;;;;5093603;28;20501;-73
2023/06/04 10:44:53;;;;;;;4.80;3.20;;;;;;;;;;5093647;28;20050;-74
2023/06/04 10:47:33;;;;;;;4.68;2.47;;;;;;;;;;5093599;28;20383;-74
2023/06/04 10:50:09;;;;;;;7.20;2.97;;;;;;;;;;5093260;28;20044;-72
2023/06/04 10:52:39;;;;;;;5.22;3.17;;;;;;;;;;5093098;28;20040;-71
2023/06/04 10:55:10;;;;;;;7.55;3.30;;;;;;;;;;5093316;28;20051;-71
2023/06/04 10:57:37;;;;;;;7.28;4.00;;;;;;;;;;5092907;28;20089;-72
2023/06/04 11:00:09;;;;;;;4.50;2.30;;;;;;;;;;5080788;28;20036;-73
2023/06/04 11:02:38;;;;;;;5.32;2.08;;;;;;;;;;5080235;28;20040;-72
2023/06/04 11:05:09;;;;;;;4.68;2.90;;;;;;;;;;5086736;28;20044;-70
2023/06/04 11:07:46;;;;;;;3.53;2.20;;;;;;;;;;5074599;28;20037;-71
2023/06/04 11:10:16;;;;;;;6.93;2.53;;;;;;;;;;5089887;28;20035;-74
2023/06/04 11:12:44;;;;;;;5.80;2.13;;;;;;;;;;5092647;28;20098;-72
2023/06/04 11:15:12;;;;;;;5.93;2.40;;;;;;;;;;5092469;28;20094;-74
2023/06/04 11:17:50;;;;;;;4.25;2.30;;;;;;;;;;5092411;28;20040;-74
2023/06/04 11:20:19;;;;;;;9.98;3.35;;;;;;;;;;5092393;28;20090;-73
2023/06/04 11:22:56;;;;;;;5.72;2.53;;;;;;;;;;5092159;28;20044;-71
2023/06/04 11:25:28;;;;;;;3.75;2.30;;;;;;;;;;5094043;28;20040;-70
2023/06/04 11:27:57;;;;;;;7.63;2.40;;;;;;;;;;5082382;28;20059;-70
2023/06/04 11:30:25;;;;;;;4.40;2.05;;;;;;;;;;5080230;28;20067;-72
2023/06/04 11:33:02;;;;;;;3.53;2.28;;;;;;;;;;5077421;28;20043;-73
2023/06/04 11:35:30;;;;;;;8.18;4.20;;;;;;;;;;5087140;28;20044;-70
2023/06/04 11:37:58;;;;;;;3.38;2.50;;;;;;;;;;5092127;28;20039;-73
2023/06/04 11:40:27;;;;;;;3.33;2.00;;;;;;;;;;5091988;28;20457;-73
2023/06/04 11:42:55;;;;;;;2.75;2.00;;;;;;;;;;5091641;28;20036;-72
2023/06/04 11:45:23;;;;;;;5.32;2.25;;;;;;;;;;5091837;28;20136;-72
2023/06/04 11:47:52;;;;;;;3.90;1.98;;;;;;;;;;5090550;28;20040;-69
2023/06/04 11:50:21;;;;;;;4.85;2.30;;;;;;;;;;5091777;28;20040;-69
2023/06/04 11:52:49;;;;;;;3.17;1.85;;;;;;;;;;5091496;28;20060;-74
2023/06/04 11:55:23;;;;;;;3.15;1.80;;;;;;;;;;5091548;28;20119;-72
2023/06/04 11:57:51;;;;;;;7.82;2.67;;;;;;;;;;5091842;28;20044;-72
2023/06/04 12:00:19;;;;;;;4.35;2.00;;;;;;;;;;5092019;28;20032;-73
2023/06/04 12:02:54;;;;;;;4.00;2.38;;;;;;;;;;5092008;28;20085;-72
2023/06/04 12:05:24;;;;;;;5.47;2.28;;;;;;;;;;5091828;28;20048;-71
2023/06/04 12:07:52;;;;;;;3.20;2.15;;;;;;;;;;5077270;28;20040;-72
2023/06/04 12:10:20;;;;;;;3.38;2.33;;;;;;;;;;5090822;28;20064;-72
2023/06/04 12:12:55;;;;;;;5.55;2.28;;;;;;;;;;5091782;28;20036;-71
2023/06/04 12:15:23;;;;;;;3.72;2.10;;;;;;;;;;5092215;28;20036;-71
2023/06/04 12:17:54;;;;;;;4.50;2.00;;;;;;;;;;5090719;28;20040;-70
2023/06/04 12:20:33;;;;;;;2.95;2.00;;;;;;;;;;5092106;28;20044;-71
2023/06/04 12:23:01;;;;;;;3.65;1.92;;;;;;;;;;5095863;28;20370;-73
2023/06/04 12:25:30;;;;;;;3.05;1.90;;;;;;;;;;5094903;28;20564;-71
2023/06/04 12:27:58;;;;;;;7.07;4.78;;;;;;;;;;5094923;28;20074;-72
2023/06/04 12:30:38;;;;;;;13.27;3.20;;;;;;;;;;5095998;28;20055;-72
2023/06/04 12:33:06;;;;;;;3.90;2.30;;;;;;;;;;5095721;28;20420;-71
2023/06/04 12:35:34;;;;;;;6.53;3.08;;;;;;;;;;5095605;28;20047;-71
2023/06/04 12:38:05;;;;;;;4.57;2.63;;;;;;;;;;5095667;28;20051;-75
2023/06/04 12:40:33;;;;;;;4.10;2.42;;;;;;;;;;5089092;28;20048;-70
2023/06/04 12:43:00;;;;;;;4.75;2.10;;;;;;;;;;5088424;28;20397;-72
2023/06/04 12:45:28;;;;;;;3.38;2.00;;;;;;;;;;5086434;28;20399;-72
2023/06/04 12:47:56;;;;;;;3.33;2.10;;;;;;;;;;5077208;28;20118;-75
2023/06/04 12:50:23;;;;;;;3.50;1.83;;;;;;;;;;5077308;28;20045;-72
2023/06/04 12:52:51;;;;;;;3.65;2.13;;;;;;;;;;5074892;28;20052;-72
2023/06/04 12:55:18;;;;;;;4.13;2.65;;;;;;;;;;5074255;28;20032;-74
2023/06/04 12:57:47;;;;;;;7.32;2.95;;;;;;;;;;5075053;28;20047;-74
2023/06/04 13:00:16;;;;;;;4.20;2.15;;;;;;;;;;5074929;28;20055;-71
2023/06/04 13:02:44;;;;;;;3.33;1.90;;;;;;;;;;5082454;28;20371;-76
2023/06/04 13:05:11;;;;;;;4.93;2.45;;;;;;;;;;5074700;28;20098;-73
2023/06/04 13:07:45;;;;;;;5.15;2.17;;;;;;;;;;5074522;28;20037;-71
2023/06/04 13:10:12;;;;;;;5.70;1.88;;;;;;;;;;5080767;28;20085;-71
2023/06/04 13:12:40;;;;;;;4.88;2.22;;;;;;;;;;5094539;28;20040;-72
2023/06/04 13:15:07;;;;;;;8.18;2.00;;;;;;;;;;5094922;28;20071;-72
2023/06/04 13:17:35;;;;;;;4.38;2.38;;;;;;;;;;5091052;28;20433;-71
2023/06/04 13:20:03;;;;;;;5.25;2.13;;;;;;;;;;5079643;28;20040;-73
2023/06/04 13:22:30;;;;;;;4.10;2.10;;;;;;;;;;5077343;28;20498;-72
2023/06/04 13:24:58;;;;;;;5.95;2.20;;;;;;;;;;5080064;28;20036;-72
2023/06/04 13:27:26;;;;;;;4.68;2.30;;;;;;;;;;5093480;28;20165;-72
2023/06/04 13:29:53;;;;;;;2.35;1.80;;;;;;;;;;5086973;28;20036;-72
2023/06/04 13:32:21;;;;;;;4.65;2.50;;;;;;;;;;5082663;28;20489;-72
2023/06/04 13:34:48;;;;;;;5.90;3.17;;;;;;;;;;5086780;28;20036;-76
2023/06/04 13:37:16;;;;;;;4.88;2.03;;;;;;;;;;5091681;28;20126;-73
2023/06/04 13:39:43;;;;;;;5.38;2.10;;;;;;;;;;5092405;28;20044;-74
2023/06/04 13:42:11;;;;;;;4.88;2.35;;;;;;;;;;5074679;28;20040;-74
2023/06/04 13:44:38;;;;;;;3.13;1.90;;;;;;;;;;5079959;28;20036;-72
2023/06/04 13:47:06;;;;;;;6.40;2.22;;;;;;;;;;5073709;28;20040;-75
2023/06/04 13:49:34;;;;;;;3.78;2.17;;;;;;;;;;5073925;28;20052;-78
2023/06/04 13:52:02;;;;;;;5.63;2.30;;;;;;;;;;5073622;28;20571;-71
2023/06/04 13:54:29;;;;;;;4.35;1.60;;;;;;;;;;5073371;28;20482;-72
2023/06/04 13:56:57;;;;;;;4.50;2.00;;;;;;;;;;5055711;28;20052;-72
2023/06/04 13:59:24;;;;;;;2.15;1.77;;;;;;;;;;5073304;28;20032;-74
2023/06/04 14:01:52;;;;;;;6.22;2.10;;;;;;;;;;5073101;28;20540;-75
2023/06/04 14:04:20;;;;;;;5.93;2.30;;;;;;;;;;5073433;28;20045;-70
2023/06/04 14:06:52;;;;;;;6.05;2.53;;;;;;;;;;5078806;28;20452;-72
2023/06/04 14:09:20;;;;;;;7.60;2.70;;;;;;;;;;5093865;28;20379;-72
2023/06/04 14:11:51;;;;;;;4.88;2.28;;;;;;;;;;5092873;28;20047;-70
2023/06/04 14:14:21;;;;;;;4.32;2.00;;;;;;;;;;5092848;28;20092;-71
2023/06/04 14:16:49;;;;;;;7.90;2.20;;;;;;;;;;5091912;28;20085;-71
2023/06/04 14:19:16;;;;;;;2.55;2.00;;;;;;;;;;5073687;28;20085;-71
2023/06/04 14:21:44;;;;;;;3.03;2.25;;;;;;;;;;5073089;28;20052;-71
2023/06/04 14:24:12;;;;;;;5.88;2.63;;;;;;;;;;5072805;28;20148;-70
2023/06/04 14:26:39;;;;;;;4.47;2.22;;;;;;;;;;5073099;28;20048;-71
2023/06/04 14:29:07;;;;;;;4.97;2.00;;;;;;;;;;5073077;28;20127;-70
2023/06/04 14:31:34;;;;;;;2.42;1.95;;;;;;;;;;5072798;28;20053;-72
2023/06/04 14:34:04;;;;;;;5.65;2.20;;;;;;;;;;5086144;28;20463;-72
2023/06/04 14:36:31;;;;;;;4.70;2.45;;;;;;;;;;5072866;28;20060;-71
2023/06/04 14:38:59;;;;;;;5.18;2.25;;;;;;;;;;5073330;28;20075;-72
2023/06/04 14:41:30;;;;;;;3.15;1.98;;;;;;;;;;5072966;28;20040;-72
2023/06/04 14:43:57;;;;;;;4.35;2.75;;;;;;;;;;5074480;28;20396;-71
2023/06/04 14:46:25;;;;;;;4.40;2.40;;;;;;;;;;5071150;28;20043;-72
2023/06/04 14:48:53;;;;;;;3.15;2.13;;;;;;;;;;5073009;28;20044;-71
2023/06/04 14:51:22;;;;;;;4.53;1.92;;;;;;;;;;5072687;28;20028;-72